sensor_id;sensor_type;location;lat;lon;timestamp;P1;durP1;ratioP1;P2;durP2;ratioP2
79023;SDS011;70306;44.764;37.688;2023-10-31T00:00:28;19.30;;;4.82;;
79023;SDS011;70306;44.764;37.688;2023-10-31T00:01:30;37.78;;;6.45;;
79023;SDS011;70306;44.764;37.688;2023-10-31T00:02:31;34.47;;;6.80;;
79023;SDS011;70306;44.764;37.688;2023-10-31T00:03:33;42.20;;;7.15;;
79023;SDS011;70306;44.764;37.688;2023-10-31T00:04:35;34.53;;;6.03;;
79023;SDS011;70306;44.764;37.688;2023-10-31T00:05:37;40.05;;;6.82;;
79023;SDS011;70306;44.764;37.688;2023-10-31T00:06:38;53.45;;;8.68;;
79023;SDS011;70306;44.764;37.688;2023-10-31T00:07:40;98.28;;;11.18;;
79023;SDS011;70306;44.764;37.688;2023-10-31T00:08:42;87.03;;;11.05;;
79023;SDS011;70306;44.764;37.688;2023-10-31T00:09:43;49.83;;;7.38;;
79023;SDS011;70306;44.764;37.688;2023-10-31T00:10:45;43.53;;;7.50;;
79023;SDS011;70306;44.764;37.688;2023-10-31T00:11:47;49.92;;;8.02;;
79023;SDS011;70306;44.764;37.688;2023-10-31T00:12:49;81.75;;;9.85;;
79023;SDS011;70306;44.764;37.688;2023-10-31T00:13:50;110.93;;;12.05;;
79023;SDS011;70306;44.764;37.688;2023-10-31T00:14:52;156.13;;;16.33;;
79023;SDS011;70306;44.764;37.688;2023-10-31T00:15:54;77.22;;;9.32;;
79023;SDS011;70306;44.764;37.688;2023-10-31T00:16:56;53.67;;;6.50;;
79023;SDS011;70306;44.764;37.688;2023-10-31T00:17:59;19.75;;;6.15;;
79023;SDS011;70306;44.764;37.688;2023-10-31T00:19:00;24.17;;;6.00;;
79023;SDS011;70306;44.764;37.688;2023-10-31T00:20:02;42.03;;;7.13;;
79023;SDS011;70306;44.764;37.688;2023-10-31T00:21:04;16.73;;;5.93;;
79023;SDS011;70306;44.764;37.688;2023-10-31T00:22:06;16.77;;;5.70;;
79023;SDS011;70306;44.764;37.688;2023-10-31T00:23:08;22.30;;;6.35;;
79023;SDS011;70306;44.764;37.688;2023-10-31T00:24:10;28.08;;;5.90;;
79023;SDS011;70306;44.764;37.688;2023-10-31T00:25:11;24.70;;;5.32;;
79023;SDS011;70306;44.764;37.688;2023-10-31T00:26:13;30.38;;;8.55;;
79023;SDS011;70306;44.764;37.688;2023-10-31T00:27:23;28.23;;;7.47;;
79023;SDS011;70306;44.764;37.688;2023-10-31T00:28:25;26.98;;;7.32;;
79023;SDS011;70306;44.764;37.688;2023-10-31T00:29:27;35.60;;;8.60;;
79023;SDS011;70306;44.764;37.688;2023-10-31T00:30:47;44.92;;;8.15;;
79023;SDS011;70306;44.764;37.688;2023-10-31T00:32:07;42.25;;;10.07;;
79023;SDS011;70306;44.764;37.688;2023-10-31T00:33:09;23.90;;;8.15;;
79023;SDS011;70306;44.764;37.688;2023-10-31T00:34:11;24.10;;;8.90;;
79023;SDS011;70306;44.764;37.688;2023-10-31T00:35:12;26.83;;;9.40;;
79023;SDS011;70306;44.764;37.688;2023-10-31T00:36:14;28.85;;;11.23;;
79023;SDS011;70306;44.764;37.688;2023-10-31T00:37:16;27.27;;;9.45;;
79023;SDS011;70306;44.764;37.688;2023-10-31T00:38:20;186.70;;;20.85;;
79023;SDS011;70306;44.764;37.688;2023-10-31T00:39:41;36.95;;;10.75;;
79023;SDS011;70306;44.764;37.688;2023-10-31T00:40:42;22.50;;;9.88;;
79023;SDS011;70306;44.764;37.688;2023-10-31T00:43:04;21.42;;;8.95;;
79023;SDS011;70306;44.764;37.688;2023-10-31T00:44:06;23.35;;;8.60;;
79023;SDS011;70306;44.764;37.688;2023-10-31T00:45:08;32.38;;;9.75;;
79023;SDS011;70306;44.764;37.688;2023-10-31T00:46:29;16.92;;;8.70;;
79023;SDS011;70306;44.764;37.688;2023-10-31T00:47:30;22.98;;;9.50;;
79023;SDS011;70306;44.764;37.688;2023-10-31T00:48:32;15.90;;;8.57;;
79023;SDS011;70306;44.764;37.688;2023-10-31T00:49:37;34.17;;;9.43;;
79023;SDS011;70306;44.764;37.688;2023-10-31T00:50:39;17.73;;;7.70;;
79023;SDS011;70306;44.764;37.688;2023-10-31T00:51:59;23.45;;;8.02;;
79023;SDS011;70306;44.764;37.688;2023-10-31T00:53:01;99.75;;;13.02;;
79023;SDS011;70306;44.764;37.688;2023-10-31T00:54:02;103.15;;;15.85;;
79023;SDS011;70306;44.764;37.688;2023-10-31T00:55:04;22.42;;;8.90;;
79023;SDS011;70306;44.764;37.688;2023-10-31T00:56:24;13.45;;;6.72;;
79023;SDS011;70306;44.764;37.688;2023-10-31T00:57:45;14.73;;;7.30;;
79023;SDS011;70306;44.764;37.688;2023-10-31T00:58:46;17.10;;;8.48;;
79023;SDS011;70306;44.764;37.688;2023-10-31T01:00:07;113.07;;;14.30;;
79023;SDS011;70306;44.764;37.688;2023-10-31T01:01:11;43.55;;;10.93;;
79023;SDS011;70306;44.764;37.688;2023-10-31T01:02:12;51.85;;;8.73;;
79023;SDS011;70306;44.764;37.688;2023-10-31T01:03:14;46.05;;;9.80;;
79023;SDS011;70306;44.764;37.688;2023-10-31T01:04:16;44.30;;;8.68;;
79023;SDS011;70306;44.764;37.688;2023-10-31T01:05:18;92.97;;;14.48;;
79023;SDS011;70306;44.764;37.688;2023-10-31T01:06:19;60.58;;;10.98;;
79023;SDS011;70306;44.764;37.688;2023-10-31T01:07:21;46.72;;;9.93;;
79023;SDS011;70306;44.764;37.688;2023-10-31T01:08:23;60.10;;;10.98;;
79023;SDS011;70306;44.764;37.688;2023-10-31T01:09:24;66.72;;;10.63;;
79023;SDS011;70306;44.764;37.688;2023-10-31T01:10:26;31.58;;;8.18;;
79023;SDS011;70306;44.764;37.688;2023-10-31T01:11:28;26.30;;;8.23;;
79023;SDS011;70306;44.764;37.688;2023-10-31T01:12:30;62.42;;;10.35;;
79023;SDS011;70306;44.764;37.688;2023-10-31T01:13:32;47.55;;;10.50;;
79023;SDS011;70306;44.764;37.688;2023-10-31T01:14:33;82.03;;;10.63;;
79023;SDS011;70306;44.764;37.688;2023-10-31T01:15:59;34.05;;;9.10;;
79023;SDS011;70306;44.764;37.688;2023-10-31T01:17:00;42.10;;;9.52;;
79023;SDS011;70306;44.764;37.688;2023-10-31T01:18:02;76.00;;;11.30;;
79023;SDS011;70306;44.764;37.688;2023-10-31T01:19:04;79.10;;;11.75;;
79023;SDS011;70306;44.764;37.688;2023-10-31T01:20:06;55.05;;;10.25;;
79023;SDS011;70306;44.764;37.688;2023-10-31T01:21:08;118.40;;;17.70;;
79023;SDS011;70306;44.764;37.688;2023-10-31T01:22:10;121.68;;;16.25;;
79023;SDS011;70306;44.764;37.688;2023-10-31T01:23:12;88.43;;;11.43;;
79023;SDS011;70306;44.764;37.688;2023-10-31T01:24:13;63.33;;;12.00;;
79023;SDS011;70306;44.764;37.688;2023-10-31T01:25:15;70.35;;;12.20;;
79023;SDS011;70306;44.764;37.688;2023-10-31T01:26:17;62.05;;;10.93;;
79023;SDS011;70306;44.764;37.688;2023-10-31T01:27:18;65.55;;;11.90;;
79023;SDS011;70306;44.764;37.688;2023-10-31T01:28:20;45.80;;;8.60;;
79023;SDS011;70306;44.764;37.688;2023-10-31T01:29:22;63.53;;;11.52;;
79023;SDS011;70306;44.764;37.688;2023-10-31T01:30:24;81.57;;;12.15;;
79023;SDS011;70306;44.764;37.688;2023-10-31T01:31:25;42.65;;;9.27;;
79023;SDS011;70306;44.764;37.688;2023-10-31T01:32:27;28.40;;;8.88;;
79023;SDS011;70306;44.764;37.688;2023-10-31T01:33:30;22.70;;;7.63;;
79023;SDS011;70306;44.764;37.688;2023-10-31T01:34:31;76.55;;;11.02;;
79023;SDS011;70306;44.764;37.688;2023-10-31T01:35:33;43.80;;;8.13;;
79023;SDS011;70306;44.764;37.688;2023-10-31T01:36:35;64.70;;;11.98;;
79023;SDS011;70306;44.764;37.688;2023-10-31T01:37:36;113.30;;;15.55;;
79023;SDS011;70306;44.764;37.688;2023-10-31T01:38:38;141.05;;;19.77;;
79023;SDS011;70306;44.764;37.688;2023-10-31T01:39:40;70.85;;;10.40;;
79023;SDS011;70306;44.764;37.688;2023-10-31T01:40:42;54.50;;;9.57;;
79023;SDS011;70306;44.764;37.688;2023-10-31T01:41:44;46.33;;;9.25;;
79023;SDS011;70306;44.764;37.688;2023-10-31T01:42:45;24.55;;;7.78;;
79023;SDS011;70306;44.764;37.688;2023-10-31T01:43:48;16.33;;;6.55;;
79023;SDS011;70306;44.764;37.688;2023-10-31T01:44:49;74.47;;;12.23;;
79023;SDS011;70306;44.764;37.688;2023-10-31T01:45:52;138.02;;;15.95;;
79023;SDS011;70306;44.764;37.688;2023-10-31T01:46:55;69.07;;;9.60;;
79023;SDS011;70306;44.764;37.688;2023-10-31T01:47:56;40.80;;;8.18;;
79023;SDS011;70306;44.764;37.688;2023-10-31T04:27:43;46.55;;;6.70;;
79023;SDS011;70306;44.764;37.688;2023-10-31T04:28:45;18.77;;;5.47;;
79023;SDS011;70306;44.764;37.688;2023-10-31T04:29:46;28.27;;;4.85;;
79023;SDS011;70306;44.764;37.688;2023-10-31T04:30:48;77.72;;;9.88;;
79023;SDS011;70306;44.764;37.688;2023-10-31T04:31:50;63.40;;;7.95;;
79023;SDS011;70306;44.764;37.688;2023-10-31T04:32:52;100.10;;;11.80;;
79023;SDS011;70306;44.764;37.688;2023-10-31T04:34:03;137.10;;;15.80;;
79023;SDS011;70306;44.764;37.688;2023-10-31T04:35:05;304.33;;;25.10;;
79023;SDS011;70306;44.764;37.688;2023-10-31T04:36:07;282.20;;;27.05;;
79023;SDS011;70306;44.764;37.688;2023-10-31T04:37:09;196.18;;;16.90;;
79023;SDS011;70306;44.764;37.688;2023-10-31T04:38:10;231.85;;;20.90;;
79023;SDS011;70306;44.764;37.688;2023-10-31T04:39:12;172.85;;;19.10;;
79023;SDS011;70306;44.764;37.688;2023-10-31T04:40:14;101.35;;;14.63;;
79023;SDS011;70306;44.764;37.688;2023-10-31T04:41:16;142.70;;;14.25;;
79023;SDS011;70306;44.764;37.688;2023-10-31T04:42:17;91.72;;;9.40;;
79023;SDS011;70306;44.764;37.688;2023-10-31T04:43:21;96.20;;;13.18;;
79023;SDS011;70306;44.764;37.688;2023-10-31T04:44:23;277.40;;;25.60;;
79023;SDS011;70306;44.764;37.688;2023-10-31T04:45:24;369.75;;;39.47;;
79023;SDS011;70306;44.764;37.688;2023-10-31T04:46:26;303.15;;;30.02;;
79023;SDS011;70306;44.764;37.688;2023-10-31T04:47:28;116.40;;;16.70;;
79023;SDS011;70306;44.764;37.688;2023-10-31T04:48:30;90.05;;;12.95;;
79023;SDS011;70306;44.764;37.688;2023-10-31T04:49:34;141.02;;;13.40;;
79023;SDS011;70306;44.764;37.688;2023-10-31T04:51:38;357.80;;;30.58;;
79023;SDS011;70306;44.764;37.688;2023-10-31T04:52:40;136.23;;;13.88;;
79023;SDS011;70306;44.764;37.688;2023-10-31T04:53:41;158.02;;;32.42;;
79023;SDS011;70306;44.764;37.688;2023-10-31T04:54:43;135.40;;;17.85;;
79023;SDS011;70306;44.764;37.688;2023-10-31T04:55:45;110.75;;;13.70;;
79023;SDS011;70306;44.764;37.688;2023-10-31T04:56:47;102.57;;;11.20;;
79023;SDS011;70306;44.764;37.688;2023-10-31T04:57:50;141.40;;;16.02;;
79023;SDS011;70306;44.764;37.688;2023-10-31T04:58:52;139.73;;;15.27;;
79023;SDS011;70306;44.764;37.688;2023-10-31T04:59:53;69.30;;;8.80;;
79023;SDS011;70306;44.764;37.688;2023-10-31T05:00:56;88.05;;;10.68;;
79023;SDS011;70306;44.764;37.688;2023-10-31T05:01:57;50.17;;;7.88;;
79023;SDS011;70306;44.764;37.688;2023-10-31T05:02:59;60.05;;;9.77;;
79023;SDS011;70306;44.764;37.688;2023-10-31T05:04:03;39.55;;;5.78;;
79023;SDS011;70306;44.764;37.688;2023-10-31T05:05:04;53.30;;;8.55;;
79023;SDS011;70306;44.764;37.688;2023-10-31T05:06:06;41.25;;;5.72;;
79023;SDS011;70306;44.764;37.688;2023-10-31T05:07:08;69.22;;;8.25;;
79023;SDS011;70306;44.764;37.688;2023-10-31T05:08:10;125.85;;;11.38;;
79023;SDS011;70306;44.764;37.688;2023-10-31T05:09:12;93.82;;;10.02;;
79023;SDS011;70306;44.764;37.688;2023-10-31T05:10:15;110.32;;;11.73;;
79023;SDS011;70306;44.764;37.688;2023-10-31T05:11:17;79.68;;;9.35;;
79023;SDS011;70306;44.764;37.688;2023-10-31T05:12:21;39.00;;;7.07;;
79023;SDS011;70306;44.764;37.688;2023-10-31T05:13:23;54.30;;;6.25;;
79023;SDS011;70306;44.764;37.688;2023-10-31T05:14:25;34.17;;;4.68;;
79023;SDS011;70306;44.764;37.688;2023-10-31T05:15:27;69.25;;;6.95;;
79023;SDS011;70306;44.764;37.688;2023-10-31T05:16:28;40.63;;;6.72;;
79023;SDS011;70306;44.764;37.688;2023-10-31T05:17:30;31.35;;;4.72;;
79023;SDS011;70306;44.764;37.688;2023-10-31T05:18:32;25.08;;;5.28;;
79023;SDS011;70306;44.764;37.688;2023-10-31T05:19:33;54.63;;;6.43;;
79023;SDS011;70306;44.764;37.688;2023-10-31T05:20:35;66.30;;;8.13;;
79023;SDS011;70306;44.764;37.688;2023-10-31T05:21:37;59.28;;;6.30;;
79023;SDS011;70306;44.764;37.688;2023-10-31T05:22:40;42.80;;;5.40;;
79023;SDS011;70306;44.764;37.688;2023-10-31T05:23:42;53.05;;;5.47;;
79023;SDS011;70306;44.764;37.688;2023-10-31T05:24:43;27.40;;;5.22;;
79023;SDS011;70306;44.764;37.688;2023-10-31T05:25:45;15.00;;;2.65;;
79023;SDS011;70306;44.764;37.688;2023-10-31T05:26:47;41.30;;;5.85;;
79023;SDS011;70306;44.764;37.688;2023-10-31T05:27:49;26.48;;;4.15;;
79023;SDS011;70306;44.764;37.688;2023-10-31T05:28:51;25.15;;;4.63;;
79023;SDS011;70306;44.764;37.688;2023-10-31T05:29:52;27.85;;;4.20;;
79023;SDS011;70306;44.764;37.688;2023-10-31T05:30:54;34.42;;;5.63;;
79023;SDS011;70306;44.764;37.688;2023-10-31T05:31:56;52.03;;;5.53;;
79023;SDS011;70306;44.764;37.688;2023-10-31T05:32:58;34.40;;;5.78;;
79023;SDS011;70306;44.764;37.688;2023-10-31T05:33:59;76.00;;;11.07;;
79023;SDS011;70306;44.764;37.688;2023-10-31T05:35:01;44.70;;;9.75;;
79023;SDS011;70306;44.764;37.688;2023-10-31T05:36:03;74.72;;;10.52;;
79023;SDS011;70306;44.764;37.688;2023-10-31T05:37:05;26.42;;;5.28;;
79023;SDS011;70306;44.764;37.688;2023-10-31T05:38:07;73.57;;;8.38;;
79023;SDS011;70306;44.764;37.688;2023-10-31T05:39:09;28.60;;;5.22;;
79023;SDS011;70306;44.764;37.688;2023-10-31T05:40:11;26.52;;;5.03;;
79023;SDS011;70306;44.764;37.688;2023-10-31T05:41:13;22.38;;;4.65;;
79023;SDS011;70306;44.764;37.688;2023-10-31T05:42:15;89.82;;;11.05;;
79023;SDS011;70306;44.764;37.688;2023-10-31T05:43:17;39.50;;;10.25;;
79023;SDS011;70306;44.764;37.688;2023-10-31T05:44:19;12.23;;;8.75;;
79023;SDS011;70306;44.764;37.688;2023-10-31T05:45:21;137.02;;;17.23;;
79023;SDS011;70306;44.764;37.688;2023-10-31T05:46:22;28.60;;;5.47;;
79023;SDS011;70306;44.764;37.688;2023-10-31T05:47:24;89.95;;;16.65;;
79023;SDS011;70306;44.764;37.688;2023-10-31T05:48:26;38.15;;;8.90;;
79023;SDS011;70306;44.764;37.688;2023-10-31T05:49:27;27.42;;;6.45;;
79023;SDS011;70306;44.764;37.688;2023-10-31T05:50:29;14.45;;;7.93;;
79023;SDS011;70306;44.764;37.688;2023-10-31T05:51:31;11.75;;;6.43;;
79023;SDS011;70306;44.764;37.688;2023-10-31T05:52:33;14.63;;;6.43;;
79023;SDS011;70306;44.764;37.688;2023-10-31T05:53:35;15.23;;;8.45;;
79023;SDS011;70306;44.764;37.688;2023-10-31T05:54:37;34.75;;;10.05;;
79023;SDS011;70306;44.764;37.688;2023-10-31T05:55:39;46.90;;;11.02;;
79023;SDS011;70306;44.764;37.688;2023-10-31T05:56:41;18.05;;;6.90;;
79023;SDS011;70306;44.764;37.688;2023-10-31T05:57:43;26.50;;;4.78;;
79023;SDS011;70306;44.764;37.688;2023-10-31T05:58:45;75.07;;;10.38;;
79023;SDS011;70306;44.764;37.688;2023-10-31T05:59:47;23.75;;;4.95;;
79023;SDS011;70306;44.764;37.688;2023-10-31T06:00:48;13.52;;;3.67;;
79023;SDS011;70306;44.764;37.688;2023-10-31T06:01:50;7.00;;;3.33;;
79023;SDS011;70306;44.764;37.688;2023-10-31T06:02:52;36.38;;;6.18;;
79023;SDS011;70306;44.764;37.688;2023-10-31T06:03:53;24.75;;;3.72;;
79023;SDS011;70306;44.764;37.688;2023-10-31T06:04:55;15.27;;;2.90;;
79023;SDS011;70306;44.764;37.688;2023-10-31T06:05:57;9.10;;;2.33;;
79023;SDS011;70306;44.764;37.688;2023-10-31T06:06:59;10.25;;;2.33;;
79023;SDS011;70306;44.764;37.688;2023-10-31T06:08:00;74.38;;;9.55;;
79023;SDS011;70306;44.764;37.688;2023-10-31T06:09:02;51.13;;;8.07;;
79023;SDS011;70306;44.764;37.688;2023-10-31T06:10:05;27.98;;;4.47;;
79023;SDS011;70306;44.764;37.688;2023-10-31T06:11:09;18.10;;;4.13;;
79023;SDS011;70306;44.764;37.688;2023-10-31T06:12:13;9.25;;;2.78;;
79023;SDS011;70306;44.764;37.688;2023-10-31T06:13:15;62.17;;;8.18;;
79023;SDS011;70306;44.764;37.688;2023-10-31T06:14:16;31.08;;;4.35;;
79023;SDS011;70306;44.764;37.688;2023-10-31T06:15:18;68.93;;;8.23;;
79023;SDS011;70306;44.764;37.688;2023-10-31T06:16:20;49.53;;;6.85;;
79023;SDS011;70306;44.764;37.688;2023-10-31T06:17:22;35.95;;;5.55;;
79023;SDS011;70306;44.764;37.688;2023-10-31T06:18:24;14.95;;;3.58;;
79023;SDS011;70306;44.764;37.688;2023-10-31T06:19:25;18.85;;;3.72;;
79023;SDS011;70306;44.764;37.688;2023-10-31T06:20:27;11.57;;;3.30;;
79023;SDS011;70306;44.764;37.688;2023-10-31T06:21:29;38.42;;;5.03;;
79023;SDS011;70306;44.764;37.688;2023-10-31T06:22:31;29.25;;;4.25;;
79023;SDS011;70306;44.764;37.688;2023-10-31T06:23:32;16.77;;;3.85;;
79023;SDS011;70306;44.764;37.688;2023-10-31T06:24:34;38.58;;;5.75;;
79023;SDS011;70306;44.764;37.688;2023-10-31T06:25:36;96.70;;;10.77;;
79023;SDS011;70306;44.764;37.688;2023-10-31T06:26:37;35.65;;;4.85;;
79023;SDS011;70306;44.764;37.688;2023-10-31T06:29:14;24.40;;;3.53;;
79023;SDS011;70306;44.764;37.688;2023-10-31T06:30:16;47.30;;;10.10;;
79023;SDS011;70306;44.764;37.688;2023-10-31T06:31:18;57.97;;;12.35;;
79023;SDS011;70306;44.764;37.688;2023-10-31T06:32:19;23.27;;;6.88;;
79023;SDS011;70306;44.764;37.688;2023-10-31T06:33:21;115.70;;;16.00;;
79023;SDS011;70306;44.764;37.688;2023-10-31T06:34:23;11.13;;;3.55;;
79023;SDS011;70306;44.764;37.688;2023-10-31T06:35:24;52.92;;;7.65;;
79023;SDS011;70306;44.764;37.688;2023-10-31T06:36:26;11.30;;;3.75;;
79023;SDS011;70306;44.764;37.688;2023-10-31T06:37:28;17.33;;;6.13;;
79023;SDS011;70306;44.764;37.688;2023-10-31T06:38:29;17.63;;;3.60;;
79023;SDS011;70306;44.764;37.688;2023-10-31T06:39:31;26.05;;;4.15;;
79023;SDS011;70306;44.764;37.688;2023-10-31T06:40:33;9.75;;;3.03;;
79023;SDS011;70306;44.764;37.688;2023-10-31T06:41:35;17.25;;;3.30;;
79023;SDS011;70306;44.764;37.688;2023-10-31T06:42:37;18.92;;;3.80;;
79023;SDS011;70306;44.764;37.688;2023-10-31T06:43:39;68.40;;;10.82;;
79023;SDS011;70306;44.764;37.688;2023-10-31T06:44:40;35.60;;;5.43;;
79023;SDS011;70306;44.764;37.688;2023-10-31T06:45:44;43.13;;;6.20;;
79023;SDS011;70306;44.764;37.688;2023-10-31T06:46:46;19.65;;;3.95;;
79023;SDS011;70306;44.764;37.688;2023-10-31T06:47:48;32.75;;;5.55;;
79023;SDS011;70306;44.764;37.688;2023-10-31T06:48:49;25.88;;;4.38;;
79023;SDS011;70306;44.764;37.688;2023-10-31T06:49:51;35.60;;;8.02;;
79023;SDS011;70306;44.764;37.688;2023-10-31T06:50:53;12.32;;;2.65;;
79023;SDS011;70306;44.764;37.688;2023-10-31T06:51:54;32.75;;;3.70;;
79023;SDS011;70306;44.764;37.688;2023-10-31T06:52:56;14.95;;;3.63;;
79023;SDS011;70306;44.764;37.688;2023-10-31T06:53:58;4.30;;;2.05;;
79023;SDS011;70306;44.764;37.688;2023-10-31T06:54:59;57.35;;;15.70;;
79023;SDS011;70306;44.764;37.688;2023-10-31T06:56:01;59.90;;;15.13;;
79023;SDS011;70306;44.764;37.688;2023-10-31T06:57:05;34.53;;;7.10;;
79023;SDS011;70306;44.764;37.688;2023-10-31T06:58:07;30.60;;;5.78;;
79023;SDS011;70306;44.764;37.688;2023-10-31T06:59:09;50.42;;;8.38;;
79023;SDS011;70306;44.764;37.688;2023-10-31T07:00:11;8.45;;;4.03;;
79023;SDS011;70306;44.764;37.688;2023-10-31T07:01:14;43.95;;;11.23;;
79023;SDS011;70306;44.764;37.688;2023-10-31T07:02:19;65.15;;;12.32;;
79023;SDS011;70306;44.764;37.688;2023-10-31T07:03:21;65.65;;;7.63;;
79023;SDS011;70306;44.764;37.688;2023-10-31T07:04:22;36.97;;;5.65;;
79023;SDS011;70306;44.764;37.688;2023-10-31T07:05:24;67.15;;;9.57;;
79023;SDS011;70306;44.764;37.688;2023-10-31T07:06:26;42.17;;;6.38;;
79023;SDS011;70306;44.764;37.688;2023-10-31T07:07:28;25.65;;;4.25;;
79023;SDS011;70306;44.764;37.688;2023-10-31T07:08:30;15.45;;;2.70;;
79023;SDS011;70306;44.764;37.688;2023-10-31T07:09:32;6.97;;;2.30;;
79023;SDS011;70306;44.764;37.688;2023-10-31T07:10:33;9.48;;;3.20;;
79023;SDS011;70306;44.764;37.688;2023-10-31T07:11:35;30.58;;;8.25;;
79023;SDS011;70306;44.764;37.688;2023-10-31T07:12:38;49.65;;;8.02;;
79023;SDS011;70306;44.764;37.688;2023-10-31T07:13:40;21.02;;;4.88;;
79023;SDS011;70306;44.764;37.688;2023-10-31T07:14:41;15.80;;;3.80;;
79023;SDS011;70306;44.764;37.688;2023-10-31T07:15:43;30.65;;;4.82;;
79023;SDS011;70306;44.764;37.688;2023-10-31T07:16:47;7.60;;;2.00;;
79023;SDS011;70306;44.764;37.688;2023-10-31T07:17:49;9.55;;;2.42;;
79023;SDS011;70306;44.764;37.688;2023-10-31T07:18:51;5.03;;;2.10;;
79023;SDS011;70306;44.764;37.688;2023-10-31T07:19:53;9.63;;;2.25;;
79023;SDS011;70306;44.764;37.688;2023-10-31T07:20:55;21.92;;;3.95;;
79023;SDS011;70306;44.764;37.688;2023-10-31T07:21:57;9.90;;;2.65;;
79023;SDS011;70306;44.764;37.688;2023-10-31T07:22:58;7.57;;;2.40;;
79023;SDS011;70306;44.764;37.688;2023-10-31T07:24:00;10.45;;;2.15;;
79023;SDS011;70306;44.764;37.688;2023-10-31T07:25:02;10.88;;;2.85;;
79023;SDS011;70306;44.764;37.688;2023-10-31T07:26:04;93.03;;;11.68;;
79023;SDS011;70306;44.764;37.688;2023-10-31T07:27:06;26.67;;;3.97;;
79023;SDS011;70306;44.764;37.688;2023-10-31T07:28:08;17.95;;;2.47;;
79023;SDS011;70306;44.764;37.688;2023-10-31T07:29:10;8.73;;;2.30;;
79023;SDS011;70306;44.764;37.688;2023-10-31T07:30:11;12.57;;;3.05;;
79023;SDS011;70306;44.764;37.688;2023-10-31T07:31:13;31.00;;;4.35;;
79023;SDS011;70306;44.764;37.688;2023-10-31T07:32:16;78.05;;;9.02;;
79023;SDS011;70306;44.764;37.688;2023-10-31T07:33:17;25.60;;;4.30;;
79023;SDS011;70306;44.764;37.688;2023-10-31T07:34:19;38.20;;;4.30;;
79023;SDS011;70306;44.764;37.688;2023-10-31T07:35:21;18.65;;;3.38;;
79023;SDS011;70306;44.764;37.688;2023-10-31T07:36:22;5.40;;;1.70;;
79023;SDS011;70306;44.764;37.688;2023-10-31T07:37:24;26.77;;;4.97;;
79023;SDS011;70306;44.764;37.688;2023-10-31T07:38:26;11.68;;;2.70;;
79023;SDS011;70306;44.764;37.688;2023-10-31T07:39:28;6.82;;;2.30;;
79023;SDS011;70306;44.764;37.688;2023-10-31T07:40:30;73.35;;;10.45;;
79023;SDS011;70306;44.764;37.688;2023-10-31T07:41:31;25.30;;;4.05;;
79023;SDS011;70306;44.764;37.688;2023-10-31T07:42:33;74.97;;;10.35;;
79023;SDS011;70306;44.764;37.688;2023-10-31T07:43:34;20.20;;;3.55;;
79023;SDS011;70306;44.764;37.688;2023-10-31T07:44:36;32.08;;;4.45;;
79023;SDS011;70306;44.764;37.688;2023-10-31T07:45:38;23.10;;;4.55;;
79023;SDS011;70306;44.764;37.688;2023-10-31T07:46:39;47.65;;;7.53;;
79023;SDS011;70306;44.764;37.688;2023-10-31T07:47:41;31.33;;;4.90;;
79023;SDS011;70306;44.764;37.688;2023-10-31T07:48:43;20.17;;;4.35;;
79023;SDS011;70306;44.764;37.688;2023-10-31T07:49:45;12.32;;;3.00;;
79023;SDS011;70306;44.764;37.688;2023-10-31T07:50:46;10.98;;;2.88;;
79023;SDS011;70306;44.764;37.688;2023-10-31T07:51:48;30.88;;;6.05;;
79023;SDS011;70306;44.764;37.688;2023-10-31T07:52:50;28.80;;;5.70;;
79023;SDS011;70306;44.764;37.688;2023-10-31T07:53:52;15.55;;;3.47;;
79023;SDS011;70306;44.764;37.688;2023-10-31T07:54:53;16.42;;;3.35;;
79023;SDS011;70306;44.764;37.688;2023-10-31T07:55:55;15.75;;;4.90;;
79023;SDS011;70306;44.764;37.688;2023-10-31T07:56:57;87.20;;;10.27;;
79023;SDS011;70306;44.764;37.688;2023-10-31T07:57:59;14.65;;;4.28;;
79023;SDS011;70306;44.764;37.688;2023-10-31T07:59:00;12.88;;;4.43;;
79023;SDS011;70306;44.764;37.688;2023-10-31T08:00:02;27.45;;;4.47;;
79023;SDS011;70306;44.764;37.688;2023-10-31T08:01:14;17.77;;;4.00;;
79023;SDS011;70306;44.764;37.688;2023-10-31T08:02:15;66.18;;;8.60;;
79023;SDS011;70306;44.764;37.688;2023-10-31T08:03:17;24.38;;;4.65;;
79023;SDS011;70306;44.764;37.688;2023-10-31T08:04:19;50.10;;;8.07;;
79023;SDS011;70306;44.764;37.688;2023-10-31T08:05:21;20.38;;;5.72;;
79023;SDS011;70306;44.764;37.688;2023-10-31T08:06:22;103.28;;;19.90;;
79023;SDS011;70306;44.764;37.688;2023-10-31T08:07:24;47.10;;;8.30;;
79023;SDS011;70306;44.764;37.688;2023-10-31T08:08:31;30.63;;;6.10;;
79023;SDS011;70306;44.764;37.688;2023-10-31T08:09:32;12.55;;;5.25;;
79023;SDS011;70306;44.764;37.688;2023-10-31T08:10:35;39.63;;;5.15;;
79023;SDS011;70306;44.764;37.688;2023-10-31T08:11:36;29.25;;;5.95;;
79023;SDS011;70306;44.764;37.688;2023-10-31T08:12:38;28.85;;;5.80;;
79023;SDS011;70306;44.764;37.688;2023-10-31T08:13:40;30.05;;;5.40;;
79023;SDS011;70306;44.764;37.688;2023-10-31T08:14:42;23.33;;;5.45;;
79023;SDS011;70306;44.764;37.688;2023-10-31T08:15:43;18.35;;;5.25;;
79023;SDS011;70306;44.764;37.688;2023-10-31T08:16:45;13.45;;;4.82;;
79023;SDS011;70306;44.764;37.688;2023-10-31T08:17:47;103.60;;;12.57;;
79023;SDS011;70306;44.764;37.688;2023-10-31T08:18:48;24.90;;;6.10;;
79023;SDS011;70306;44.764;37.688;2023-10-31T08:19:50;19.63;;;4.85;;
79023;SDS011;70306;44.764;37.688;2023-10-31T08:20:52;42.20;;;6.43;;
79023;SDS011;70306;44.764;37.688;2023-10-31T08:21:54;89.97;;;13.10;;
79023;SDS011;70306;44.764;37.688;2023-10-31T08:22:55;21.10;;;6.40;;
79023;SDS011;70306;44.764;37.688;2023-10-31T08:23:57;26.45;;;6.15;;
79023;SDS011;70306;44.764;37.688;2023-10-31T08:24:59;29.77;;;6.03;;
79023;SDS011;70306;44.764;37.688;2023-10-31T08:26:01;26.02;;;6.05;;
79023;SDS011;70306;44.764;37.688;2023-10-31T08:27:02;96.07;;;12.25;;
79023;SDS011;70306;44.764;37.688;2023-10-31T08:49:54;78.57;;;9.80;;
79023;SDS011;70306;44.764;37.688;2023-10-31T08:50:55;54.05;;;7.47;;
79023;SDS011;70306;44.764;37.688;2023-10-31T08:51:57;13.25;;;4.93;;
79023;SDS011;70306;44.764;37.688;2023-10-31T08:52:59;10.73;;;3.90;;
79023;SDS011;70306;44.764;37.688;2023-10-31T08:54:00;21.27;;;4.78;;
79023;SDS011;70306;44.764;37.688;2023-10-31T08:55:02;29.27;;;6.55;;
79023;SDS011;70306;44.764;37.688;2023-10-31T08:56:05;93.72;;;11.30;;
79023;SDS011;70306;44.764;37.688;2023-10-31T08:57:06;43.22;;;7.28;;
79023;SDS011;70306;44.764;37.688;2023-10-31T08:58:08;37.00;;;6.25;;
79023;SDS011;70306;44.764;37.688;2023-10-31T08:59:10;22.75;;;5.60;;
79023;SDS011;70306;44.764;37.688;2023-10-31T09:00:12;18.30;;;4.88;;
79023;SDS011;70306;44.764;37.688;2023-10-31T09:01:15;143.23;;;14.98;;
79023;SDS011;70306;44.764;37.688;2023-10-31T09:02:16;52.53;;;5.95;;
79023;SDS011;70306;44.764;37.688;2023-10-31T09:03:18;84.13;;;8.52;;
79023;SDS011;70306;44.764;37.688;2023-10-31T09:04:20;42.88;;;6.72;;
79023;SDS011;70306;44.764;37.688;2023-10-31T09:05:22;26.38;;;6.15;;
79023;SDS011;70306;44.764;37.688;2023-10-31T09:06:23;18.35;;;4.78;;
79023;SDS011;70306;44.764;37.688;2023-10-31T09:07:25;138.30;;;17.63;;